sensor_id;sensor_type;location;lat;lon;timestamp;pressure;altitude;pressure_sealevel;temperature;humidity
46782;BME280;32541;46.298;11.506;2023-06-19T00:01:56;89751.25;;;15.23;79.51
46782;BME280;32541;46.298;11.506;2023-06-19T00:04:21;89738.97;;;15.14;80.11
46782;BME280;32541;46.298;11.506;2023-06-19T00:06:46;89738.97;;;15.14;79.95
46782;BME280;32541;46.298;11.506;2023-06-19T00:09:13;89738.97;;;15.14;80.13
46782;BME280;32541;46.298;11.506;2023-06-19T00:11:39;89745.72;;;15.11;80.11
46782;BME280;32541;46.298;11.506;2023-06-19T00:14:04;89733.94;;;15.11;80.28
46782;BME280;32541;46.298;11.506;2023-06-19T00:16:30;89725.63;;;14.99;80.90
46782;BME280;32541;46.298;11.506;2023-06-19T00:18:56;89726.22;;;14.97;81.25
46782;BME280;32541;46.298;11.506;2023-06-19T00:21:22;89727.31;;;15.04;80.65
46782;BME280;32541;46.298;11.506;2023-06-19T00:23:51;89727.41;;;15.06;80.67
46782;BME280;32541;46.298;11.506;2023-06-19T00:26:17;89731.88;;;15.11;80.29
46782;BME280;32541;46.298;11.506;2023-06-19T00:28:43;89729.59;;;14.96;81.49
46782;BME280;32541;46.298;11.506;2023-06-19T00:31:13;89740.44;;;14.92;81.49
46782;BME280;32541;46.298;11.506;2023-06-19T00:33:40;89732.38;;;14.96;80.64
46782;BME280;32541;46.298;11.506;2023-06-19T00:36:13;89733.44;;;14.91;81.25
46782;BME280;32541;46.298;11.506;2023-06-19T00:38:39;89732.94;;;15.06;80.86
46782;BME280;32541;46.298;11.506;2023-06-19T00:41:05;89732.97;;;14.94;81.32
46782;BME280;32541;46.298;11.506;2023-06-19T00:43:32;89730.31;;;14.85;81.84
46782;BME280;32541;46.298;11.506;2023-06-19T00:45:58;89735.75;;;14.83;82.11
46782;BME280;32541;46.298;11.506;2023-06-19T00:48:23;89738.88;;;14.89;82.36
46782;BME280;32541;46.298;11.506;2023-06-19T00:50:50;89743.56;;;14.86;82.17
46782;BME280;32541;46.298;11.506;2023-06-19T00:53:15;89749.84;;;14.87;82.30
46782;BME280;32541;46.298;11.506;2023-06-19T00:55:41;89746.56;;;14.79;82.98
46782;BME280;32541;46.298;11.506;2023-06-19T00:58:09;89748.88;;;14.82;81.98
46782;BME280;32541;46.298;11.506;2023-06-19T01:00:34;89744.91;;;14.74;81.94
46782;BME280;32541;46.298;11.506;2023-06-19T01:03:00;89742.00;;;14.83;81.80
46782;BME280;32541;46.298;11.506;2023-06-19T01:05:25;89737.94;;;14.84;82.13
46782;BME280;32541;46.298;11.506;2023-06-19T01:10:38;89743.31;;;14.71;82.84
46782;BME280;32541;46.298;11.506;2023-06-19T01:13:08;89747.56;;;14.72;82.82
46782;BME280;32541;46.298;11.506;2023-06-19T01:15:37;89747.91;;;14.66;83.13
46782;BME280;32541;46.298;11.506;2023-06-19T01:18:04;89756.31;;;14.57;83.69
46782;BME280;32541;46.298;11.506;2023-06-19T01:20:30;89755.50;;;14.66;82.99
46782;BME280;32541;46.298;11.506;2023-06-19T01:22:56;89752.72;;;14.54;84.58
46782;BME280;32541;46.298;11.506;2023-06-19T01:25:23;89750.16;;;14.46;85.68
46782;BME280;32541;46.298;11.506;2023-06-19T01:27:49;89764.84;;;14.49;85.73
46782;BME280;32541;46.298;11.506;2023-06-19T01:30:15;89764.63;;;14.57;84.83
46782;BME280;32541;46.298;11.506;2023-06-19T01:35:18;89751.16;;;14.63;84.46
46782;BME280;32541;46.298;11.506;2023-06-19T01:37:44;89759.47;;;14.74;84.38
46782;BME280;32541;46.298;11.506;2023-06-19T01:40:12;89762.81;;;14.61;84.68
46782;BME280;32541;46.298;11.506;2023-06-19T01:42:39;89766.06;;;14.46;85.62
46782;BME280;32541;46.298;11.506;2023-06-19T01:45:06;89768.56;;;14.42;85.78
46782;BME280;32541;46.298;11.506;2023-06-19T01:47:31;89767.13;;;14.41;85.83
46782;BME280;32541;46.298;11.506;2023-06-19T01:49:57;89761.22;;;14.46;85.80
46782;BME280;32541;46.298;11.506;2023-06-19T01:52:24;89762.22;;;14.51;85.49
46782;BME280;32541;46.298;11.506;2023-06-19T01:54:50;89762.69;;;14.48;85.93
46782;BME280;32541;46.298;11.506;2023-06-19T01:57:15;89762.22;;;14.63;85.01
46782;BME280;32541;46.298;11.506;2023-06-19T01:59:41;89764.75;;;14.59;85.04
46782;BME280;32541;46.298;11.506;2023-06-19T02:02:07;89766.91;;;14.49;85.64
46782;BME280;32541;46.298;11.506;2023-06-19T02:04:32;89767.13;;;14.41;85.71
46782;BME280;32541;46.298;11.506;2023-06-19T02:06:58;89767.47;;;14.35;86.24
46782;BME280;32541;46.298;11.506;2023-06-19T02:09:23;89762.25;;;14.18;87.13
46782;BME280;32541;46.298;11.506;2023-06-19T02:11:49;89758.16;;;14.19;86.84
46782;BME280;32541;46.298;11.506;2023-06-19T02:14:14;89754.31;;;14.24;86.68
46782;BME280;32541;46.298;11.506;2023-06-19T02:16:40;89764.91;;;14.28;86.26
46782;BME280;32541;46.298;11.506;2023-06-19T02:19:10;89756.28;;;14.33;86.37
46782;BME280;32541;46.298;11.506;2023-06-19T02:21:36;89758.88;;;14.31;85.86
46782;BME280;32541;46.298;11.506;2023-06-19T02:24:02;89756.28;;;14.33;85.52
46782;BME280;32541;46.298;11.506;2023-06-19T02:26:27;89763.59;;;14.29;85.54
46782;BME280;32541;46.298;11.506;2023-06-19T02:28:55;89756.63;;;14.28;85.30
46782;BME280;32541;46.298;11.506;2023-06-19T02:31:22;89763.13;;;14.32;85.78
46782;BME280;32541;46.298;11.506;2023-06-19T02:33:48;89757.94;;;14.27;85.46
46782;BME280;32541;46.298;11.506;2023-06-19T02:36:13;89763.94;;;14.23;85.58
46782;BME280;32541;46.298;11.506;2023-06-19T02:38:48;89762.38;;;14.20;85.71
46782;BME280;32541;46.298;11.506;2023-06-19T02:41:13;89762.63;;;14.24;85.35
46782;BME280;32541;46.298;11.506;2023-06-19T02:43:44;89764.31;;;14.29;85.48
46782;BME280;32541;46.298;11.506;2023-06-19T02:46:11;89761.53;;;14.29;85.36
46782;BME280;32541;46.298;11.506;2023-06-19T02:48:37;89764.19;;;14.27;85.46
46782;BME280;32541;46.298;11.506;2023-06-19T02:51:02;89765.97;;;14.23;85.42
46782;BME280;32541;46.298;11.506;2023-06-19T02:53:27;89765.25;;;14.22;85.36
46782;BME280;32541;46.298;11.506;2023-06-19T02:55:53;89770.44;;;14.28;84.86
46782;BME280;32541;46.298;11.506;2023-06-19T02:58:19;89761.09;;;14.33;84.29
46782;BME280;32541;46.298;11.506;2023-06-19T03:00:46;89762.16;;;14.28;85.32
46782;BME280;32541;46.298;11.506;2023-06-19T03:03:12;89765.50;;;14.26;84.89
46782;BME280;32541;46.298;11.506;2023-06-19T03:05:38;89768.97;;;14.15;85.66
46782;BME280;32541;46.298;11.506;2023-06-19T03:08:06;89768.22;;;14.03;85.88
46782;BME280;32541;46.298;11.506;2023-06-19T03:10:32;89771.81;;;14.06;85.91
46782;BME280;32541;46.298;11.506;2023-06-19T03:12:58;89770.91;;;14.13;85.58
46782;BME280;32541;46.298;11.506;2023-06-19T03:15:24;89776.97;;;14.00;85.96
46782;BME280;32541;46.298;11.506;2023-06-19T03:17:50;89766.75;;;14.02;85.86
46782;BME280;32541;46.298;11.506;2023-06-19T03:20:15;89768.94;;;14.04;85.85
46782;BME280;32541;46.298;11.506;2023-06-19T03:22:41;89771.81;;;14.06;85.87
46782;BME280;32541;46.298;11.506;2023-06-19T03:25:07;89771.56;;;14.02;86.11
46782;BME280;32541;46.298;11.506;2023-06-19T03:27:33;89777.31;;;13.94;86.54
46782;BME280;32541;46.298;11.506;2023-06-19T03:29:59;89784.94;;;14.05;86.17
46782;BME280;32541;46.298;11.506;2023-06-19T03:32:24;89785.22;;;13.88;86.51
46782;BME280;32541;46.298;11.506;2023-06-19T03:34:50;89777.00;;;13.78;86.69
46782;BME280;32541;46.298;11.506;2023-06-19T03:37:16;89786.63;;;13.77;86.98
46782;BME280;32541;46.298;11.506;2023-06-19T03:39:42;89785.91;;;13.77;87.28
46782;BME280;32541;46.298;11.506;2023-06-19T03:42:07;89782.31;;;13.74;87.98
46782;BME280;32541;46.298;11.506;2023-06-19T03:44:33;89793.47;;;13.76;88.06
46782;BME280;32541;46.298;11.506;2023-06-19T03:46:58;89785.44;;;13.80;87.81
46782;BME280;32541;46.298;11.506;2023-06-19T03:49:24;89786.31;;;13.83;88.37
46782;BME280;32541;46.298;11.506;2023-06-19T03:51:50;89781.28;;;13.91;87.86
46782;BME280;32541;46.298;11.506;2023-06-19T03:54:15;89778.97;;;13.87;88.17
46782;BME280;32541;46.298;11.506;2023-06-19T03:56:41;89772.53;;;13.95;87.96
46782;BME280;32541;46.298;11.506;2023-06-19T03:59:06;89776.13;;;13.97;87.81
46782;BME280;32541;46.298;11.506;2023-06-19T04:01:32;89780.34;;;13.98;88.27
46782;BME280;32541;46.298;11.506;2023-06-19T04:03:57;89780.47;;;14.00;88.73
46782;BME280;32541;46.298;11.506;2023-06-19T04:06:24;89774.94;;;14.00;88.17
46782;BME280;32541;46.298;11.506;2023-06-19T04:08:49;89782.72;;;13.92;88.85
46782;BME280;32541;46.298;11.506;2023-06-19T04:11:15;89777.66;;;13.88;88.71
46782;BME280;32541;46.298;11.506;2023-06-19T04:13:41;89781.00;;;13.87;89.55
46782;BME280;32541;46.298;11.506;2023-06-19T04:16:06;89779.97;;;13.92;88.80
46782;BME280;32541;46.298;11.506;2023-06-19T04:18:31;89786.22;;;13.93;88.01
46782;BME280;32541;46.298;11.506;2023-06-19T04:20:57;89780.34;;;13.98;88.05
46782;BME280;32541;46.298;11.506;2023-06-19T04:23:22;89786.25;;;14.04;88.01
46782;BME280;32541;46.298;11.506;2023-06-19T04:25:48;89772.44;;;14.04;89.03
46782;BME280;32541;46.298;11.506;2023-06-19T04:28:13;89778.94;;;14.09;89.30
46782;BME280;32541;46.298;11.506;2023-06-19T04:30:39;89781.69;;;14.09;88.92
46782;BME280;32541;46.298;11.506;2023-06-19T04:33:04;89778.72;;;14.16;88.76
46782;BME280;32541;46.298;11.506;2023-06-19T04:35:31;89775.81;;;14.14;89.03
46782;BME280;32541;46.298;11.506;2023-06-19T04:37:57;89771.84;;;14.17;89.08
46782;BME280;32541;46.298;11.506;2023-06-19T04:40:26;89773.53;;;14.22;89.15
46782;BME280;32541;46.298;11.506;2023-06-19T04:42:52;89774.66;;;14.29;88.98
46782;BME280;32541;46.298;11.506;2023-06-19T04:45:19;89778.44;;;14.33;89.11
46782;BME280;32541;46.298;11.506;2023-06-19T04:47:45;89775.78;;;14.35;89.48
46782;BME280;32541;46.298;11.506;2023-06-19T04:50:10;89775.31;;;14.39;89.49
46782;BME280;32541;46.298;11.506;2023-06-19T04:52:36;89777.34;;;14.38;89.62
46782;BME280;32541;46.298;11.506;2023-06-19T04:55:05;89781.56;;;14.39;90.11
46782;BME280;32541;46.298;11.506;2023-06-19T04:57:31;89779.75;;;14.44;89.83
46782;BME280;32541;46.298;11.506;2023-06-19T04:59:56;89787.13;;;14.51;89.62
46782;BME280;32541;46.298;11.506;2023-06-19T05:02:22;89782.66;;;14.46;89.77
46782;BME280;32541;46.298;11.506;2023-06-19T05:04:49;89785.91;;;14.42;89.62
46782;BME280;32541;46.298;11.506;2023-06-19T05:07:14;89787.69;;;14.50;89.17
46782;BME280;32541;46.298;11.506;2023-06-19T05:09:40;89793.13;;;14.48;90.01
46782;BME280;32541;46.298;11.506;2023-06-19T05:12:06;89789.53;;;14.57;89.36
46782;BME280;32541;46.298;11.506;2023-06-19T05:14:31;89783.25;;;14.56;89.61
46782;BME280;32541;46.298;11.506;2023-06-19T05:16:57;89792.78;;;14.65;90.89
46782;BME280;32541;46.298;11.506;2023-06-19T05:19:22;89776.78;;;14.63;89.62
46782;BME280;32541;46.298;11.506;2023-06-19T05:21:48;89776.53;;;14.71;89.89
46782;BME280;32541;46.298;11.506;2023-06-19T05:24:13;89774.97;;;14.68;89.93
46782;BME280;32541;46.298;11.506;2023-06-19T05:26:39;89777.28;;;14.71;89.83
46782;BME280;32541;46.298;11.506;2023-06-19T05:29:04;89766.44;;;14.75;89.52
46782;BME280;32541;46.298;11.506;2023-06-19T05:31:33;89773.06;;;14.82;89.48
46782;BME280;32541;46.298;11.506;2023-06-19T05:33:59;89777.03;;;14.79;90.05
46782;BME280;32541;46.298;11.506;2023-06-19T05:36:24;89768.59;;;14.77;89.88
46782;BME280;32541;46.298;11.506;2023-06-19T05:38:49;89772.34;;;14.81;90.19
46782;BME280;32541;46.298;11.506;2023-06-19T05:41:15;89778.72;;;14.84;89.99
46782;BME280;32541;46.298;11.506;2023-06-19T05:43:41;89779.56;;;14.98;89.37
46782;BME280;32541;46.298;11.506;2023-06-19T05:46:06;89778.47;;;14.91;89.85
46782;BME280;32541;46.298;11.506;2023-06-19T05:48:32;89775.97;;;14.84;89.81
46782;BME280;32541;46.298;11.506;2023-06-19T05:50:57;89776.31;;;14.90;88.63
46782;BME280;32541;46.298;11.506;2023-06-19T05:53:23;89772.72;;;14.87;88.26
46782;BME280;32541;46.298;11.506;2023-06-19T05:55:48;89777.06;;;14.90;89.07
46782;BME280;32541;46.298;11.506;2023-06-19T05:58:13;89777.88;;;14.93;88.98
46782;BME280;32541;46.298;11.506;2023-06-19T06:00:39;89773.06;;;14.93;88.03
46782;BME280;32541;46.298;11.506;2023-06-19T06:03:04;89779.94;;;15.04;87.56
46782;BME280;32541;46.298;11.506;2023-06-19T06:05:30;89782.56;;;15.14;86.69
46782;BME280;32541;46.298;11.506;2023-06-19T06:07:56;89779.31;;;15.17;86.12
46782;BME280;32541;46.298;11.506;2023-06-19T06:10:22;89771.47;;;15.25;86.49
46782;BME280;32541;46.298;11.506;2023-06-19T06:12:48;89769.53;;;15.28;86.86
46782;BME280;32541;46.298;11.506;2023-06-19T06:15:13;89769.91;;;15.22;86.67
46782;BME280;32541;46.298;11.506;2023-06-19T06:17:39;89771.47;;;15.37;85.94
46782;BME280;32541;46.298;11.506;2023-06-19T06:20:05;89770.97;;;15.52;86.80
46782;BME280;32541;46.298;11.506;2023-06-19T06:22:36;89767.94;;;15.60;87.39
46782;BME280;32541;46.298;11.506;2023-06-19T06:25:02;89773.06;;;15.77;87.64
46782;BME280;32541;46.298;11.506;2023-06-19T06:27:27;89767.50;;;15.88;87.77
46782;BME280;32541;46.298;11.506;2023-06-19T06:29:53;89766.28;;;15.91;86.52
46782;BME280;32541;46.298;11.506;2023-06-19T06:32:18;89765.50;;;16.02;87.26
46782;BME280;32541;46.298;11.506;2023-06-19T06:34:43;89760.84;;;16.19;87.44
46782;BME280;32541;46.298;11.506;2023-06-19T06:37:09;89760.91;;;16.32;86.00
46782;BME280;32541;46.298;11.506;2023-06-19T06:39:34;89764.66;;;16.50;85.50
46782;BME280;32541;46.298;11.506;2023-06-19T06:42:00;89771.66;;;16.77;84.24
46782;BME280;32541;46.298;11.506;2023-06-19T06:44:25;89764.13;;;16.79;82.61
46782;BME280;32541;46.298;11.506;2023-06-19T06:46:51;89761.69;;;16.85;80.98
46782;BME280;32541;46.298;11.506;2023-06-19T06:49:16;89768.59;;;16.98;79.38
46782;BME280;32541;46.298;11.506;2023-06-19T06:51:42;89774.06;;;17.09;77.98
46782;BME280;32541;46.298;11.506;2023-06-19T06:54:07;89771.28;;;17.23;77.87
46782;BME280;32541;46.298;11.506;2023-06-19T06:56:32;89765.84;;;17.39;77.85
46782;BME280;32541;46.298;11.506;2023-06-19T06:58:58;89767.25;;;17.53;76.80
46782;BME280;32541;46.298;11.506;2023-06-19T07:01:23;89763.66;;;17.64;76.34
46782;BME280;32541;46.298;11.506;2023-06-19T07:03:48;89763.97;;;17.70;74.78
46782;BME280;32541;46.298;11.506;2023-06-19T07:06:14;89772.44;;;17.59;76.44
46782;BME280;32541;46.298;11.506;2023-06-19T07:08:39;89771.28;;;17.64;76.70
46782;BME280;32541;46.298;11.506;2023-06-19T07:11:08;89761.28;;;17.86;76.28
46782;BME280;32541;46.298;11.506;2023-06-19T07:13:34;89764.66;;;17.85;76.59
46782;BME280;32541;46.298;11.506;2023-06-19T07:15:59;89765.97;;;17.97;74.46
46782;BME280;32541;46.298;11.506;2023-06-19T07:18:26;89765.19;;;18.24;73.46
46782;BME280;32541;46.298;11.506;2023-06-19T07:20:52;89768.31;;;18.16;73.56
46782;BME280;32541;46.298;11.506;2023-06-19T07:23:17;89762.09;;;18.18;73.84
46782;BME280;32541;46.298;11.506;2023-06-19T07:25:45;89760.44;;;18.26;74.00
46782;BME280;32541;46.298;11.506;2023-06-19T07:28:11;89758.63;;;18.47;74.83
46782;BME280;32541;46.298;11.506;2023-06-19T07:30:36;89753.38;;;18.68;73.39
46782;BME280;32541;46.298;11.506;2023-06-19T07:33:01;89754.38;;;18.91;72.32
46782;BME280;32541;46.298;11.506;2023-06-19T07:35:27;89750.34;;;19.09;69.98
46782;BME280;32541;46.298;11.506;2023-06-19T07:37:52;89751.50;;;19.35;70.83
46782;BME280;32541;46.298;11.506;2023-06-19T07:40:17;89748.97;;;19.57;67.72
46782;BME280;32541;46.298;11.506;2023-06-19T07:42:43;89751.69;;;19.88;61.35
46782;BME280;32541;46.298;11.506;2023-06-19T07:45:08;89742.03;;;19.91;60.65
46782;BME280;32541;46.298;11.506;2023-06-19T07:47:34;89737.19;;;19.92;59.83
46782;BME280;32541;46.298;11.506;2023-06-19T07:49:59;89742.56;;;20.04;60.54
46782;BME280;32541;46.298;11.506;2023-06-19T07:52:25;89732.66;;;20.18;62.22
46782;BME280;32541;46.298;11.506;2023-06-19T07:54:55;89734.94;;;20.39;60.66
46782;BME280;32541;46.298;11.506;2023-06-19T07:57:22;89733.09;;;20.64;58.88
46782;BME280;32541;46.298;11.506;2023-06-19T07:59:49;89734.25;;;20.76;57.31
46782;BME280;32541;46.298;11.506;2023-06-19T08:02:14;89728.03;;;20.78;56.64
46782;BME280;32541;46.298;11.506;2023-06-19T08:04:40;89729.13;;;20.88;56.16
46782;BME280;32541;46.298;11.506;2023-06-19T08:07:06;89724.94;;;21.07;58.98
46782;BME280;32541;46.298;11.506;2023-06-19T08:09:32;89723.69;;;21.30;54.54
46782;BME280;32541;46.298;11.506;2023-06-19T08:11:57;89726.84;;;21.20;54.77
46782;BME280;32541;46.298;11.506;2023-06-19T08:14:23;89726.16;;;21.02;55.16
46782;BME280;32541;46.298;11.506;2023-06-19T08:16:48;89724.19;;;21.24;55.04
46782;BME280;32541;46.298;11.506;2023-06-19T08:19:14;89725.69;;;21.47;54.57
46782;BME280;32541;46.298;11.506;2023-06-19T08:21:39;89718.31;;;21.36;54.24
46782;BME280;32541;46.298;11.506;2023-06-19T08:24:05;89716.03;;;21.50;54.31
46782;BME280;32541;46.298;11.506;2023-06-19T08:26:31;89715.31;;;21.69;54.62
46782;BME280;32541;46.298;11.506;2023-06-19T08:28:56;89717.47;;;21.51;54.09
46782;BME280;32541;46.298;11.506;2023-06-19T08:31:22;89711.56;;;21.23;54.67
46782;BME280;32541;46.298;11.506;2023-06-19T08:33:55;89709.06;;;21.51;54.36
46782;BME280;32541;46.298;11.506;2023-06-19T08:36:20;89709.91;;;21.75;53.88
46782;BME280;32541;46.298;11.506;2023-06-19T08:38:46;89703.53;;;21.92;53.11
46782;BME280;32541;46.298;11.506;2023-06-19T08:41:19;89696.06;;;22.21;52.55
46782;BME280;32541;46.298;11.506;2023-06-19T08:43:45;89691.88;;;22.43;53.13
46782;BME280;32541;46.298;11.506;2023-06-19T08:46:13;89689.91;;;22.69;51.65
46782;BME280;32541;46.298;11.506;2023-06-19T08:48:40;89687.91;;;22.29;51.40
46782;BME280;32541;46.298;11.506;2023-06-19T08:51:06;89687.19;;;22.50;51.98
46782;BME280;32541;46.298;11.506;2023-06-19T08:53:34;89676.56;;;22.92;50.69
46782;BME280;32541;46.298;11.506;2023-06-19T08:56:01;89673.94;;;22.98;49.53
46782;BME280;32541;46.298;11.506;2023-06-19T08:58:27;89675.13;;;22.91;49.85
46782;BME280;32541;46.298;11.506;2023-06-19T09:00:52;89665.06;;;23.31;51.01
46782;BME280;32541;46.298;11.506;2023-06-19T09:03:21;89668.53;;;23.53;51.30
46782;BME280;32541;46.298;11.506;2023-06-19T09:05:47;89667.47;;;23.41;49.92
46782;BME280;32541;46.298;11.506;2023-06-19T09:08:15;89663.19;;;23.14;50.00
46782;BME280;32541;46.298;11.506;2023-06-19T09:10:41;89658.81;;;22.83;51.20
46782;BME280;32541;46.298;11.506;2023-06-19T09:13:07;89647.66;;;23.11;49.60
46782;BME280;32541;46.298;11.506;2023-06-19T09:15:35;89653.94;;;23.09;47.48
46782;BME280;32541;46.298;11.506;2023-06-19T09:20:28;89659.75;;;23.41;49.24
46782;BME280;32541;46.298;11.506;2023-06-19T09:22:58;89659.72;;;23.39;47.49
46782;BME280;32541;46.298;11.506;2023-06-19T09:25:23;89656.25;;;23.66;48.11
46782;BME280;32541;46.298;11.506;2023-06-19T09:27:50;89650.97;;;24.08;47.11
46782;BME280;32541;46.298;11.506;2023-06-19T09:30:16;89643.13;;;24.30;47.24
46782;BME280;32541;46.298;11.506;2023-06-19T09:32:41;89646.66;;;24.61;48.20
46782;BME280;32541;46.298;11.506;2023-06-19T09:35:07;89642.53;;;24.96;48.24
46782;BME280;32541;46.298;11.506;2023-06-19T09:37:33;89644.16;;;25.38;48.04
46782;BME280;32541;46.298;11.506;2023-06-19T09:40:00;89643.38;;;24.70;46.10
46782;BME280;32541;46.298;11.506;2023-06-19T09:42:31;89645.38;;;24.08;47.82
46782;BME280;32541;46.298;11.506;2023-06-19T09:45:02;89636.63;;;24.22;46.36
46782;BME280;32541;46.298;11.506;2023-06-19T09:47:35;89639.50;;;24.56;47.34
46782;BME280;32541;46.298;11.506;2023-06-19T09:50:01;89635.00;;;25.04;47.54
46782;BME280;32541;46.298;11.506;2023-06-19T09:52:28;89640.63;;;24.74;46.58
46782;BME280;32541;46.298;11.506;2023-06-19T09:54:54;89630.88;;;23.90;49.37
46782;BME280;32541;46.298;11.506;2023-06-19T09:57:21;89629.41;;;24.45;48.37
46782;BME280;32541;46.298;11.506;2023-06-19T09:59:52;89633.50;;;25.01;47.28
46782;BME280;32541;46.298;11.506;2023-06-19T10:02:19;89618.47;;;25.22;47.65
46782;BME280;32541;46.298;11.506;2023-06-19T10:04:50;89630.19;;;25.45;47.45
46782;BME280;32541;46.298;11.506;2023-06-19T10:07:20;89630.94;;;25.47;45.49
46782;BME280;32541;46.298;11.506;2023-06-19T10:09:59;89633.03;;;25.80;46.26
46782;BME280;32541;46.298;11.506;2023-06-19T10:12:35;89628.56;;;26.07;46.25
46782;BME280;32541;46.298;11.506;2023-06-19T10:15:21;89633.53;;;25.71;44.60
46782;BME280;32541;46.298;11.506;2023-06-19T10:25:37;89608.94;;;25.37;44.99
46782;BME280;32541;46.298;11.506;2023-06-19T10:28:03;89622.53;;;25.15;44.80
46782;BME280;32541;46.298;11.506;2023-06-19T10:30:32;89602.72;;;25.09;45.36
46782;BME280;32541;46.298;11.506;2023-06-19T10:32:59;89611.50;;;25.59;44.04
46782;BME280;32541;46.298;11.506;2023-06-19T10:35:28;89615.91;;;25.34;43.94
46782;BME280;32541;46.298;11.506;2023-06-19T10:37:54;89625.81;;;25.37;44.96
46782;BME280;32541;46.298;11.506;2023-06-19T10:40:20;89614.38;;;25.63;45.52
46782;BME280;32541;46.298;11.506;2023-06-19T10:42:45;89622.97;;;26.11;45.56
46782;BME280;32541;46.298;11.506;2023-06-19T10:45:13;89611.69;;;26.51;44.94
46782;BME280;32541;46.298;11.506;2023-06-19T10:47:41;89610.75;;;26.80;44.21
46782;BME280;32541;46.298;11.506;2023-06-19T10:50:11;89618.25;;;26.66;43.62
46782;BME280;32541;46.298;11.506;2023-06-19T10:52:40;89607.31;;;26.88;44.06
46782;BME280;32541;46.298;11.506;2023-06-19T10:55:06;89608.97;;;27.05;44.61
46782;BME280;32541;46.298;11.506;2023-06-19T10:57:32;89611.59;;;27.43;43.54
46782;BME280;32541;46.298;11.506;2023-06-19T10:59:58;89619.81;;;27.23;42.74
46782;BME280;32541;46.298;11.506;2023-06-19T11:02:24;89611.81;;;27.07;43.86
46782;BME280;32541;46.298;11.506;2023-06-19T11:04:54;89603.50;;;26.25;43.83
46782;BME280;32541;46.298;11.506;2023-06-19T11:07:21;89609.84;;;26.24;44.45
46782;BME280;32541;46.298;11.506;2023-06-19T11:09:48;89605.25;;;26.46;44.55
46782;BME280;32541;46.298;11.506;2023-06-19T11:12:19;89604.28;;;26.74;44.70
46782;BME280;32541;46.298;11.506;2023-06-19T11:14:45;89601.44;;;26.74;42.87
46782;BME280;32541;46.298;11.506;2023-06-19T11:17:10;89597.00;;;27.09;44.43
46782;BME280;32541;46.298;11.506;2023-06-19T11:19:35;89614.75;;;26.67;42.57
46782;BME280;32541;46.298;11.506;2023-06-19T11:22:03;89603.75;;;26.39;41.82
46782;BME280;32541;46.298;11.506;2023-06-19T11:24:29;89617.75;;;25.56;42.57
46782;BME280;32541;46.298;11.506;2023-06-19T11:26:56;89600.69;;;25.48;42.98
46782;BME280;32541;46.298;11.506;2023-06-19T11:29:25;89602.72;;;25.81;44.78
46782;BME280;32541;46.298;11.506;2023-06-19T11:31:53;89594.66;;;26.01;43.39
46782;BME280;32541;46.298;11.506;2023-06-19T11:34:19;89599.69;;;26.50;43.83
46782;BME280;32541;46.298;11.506;2023-06-19T11:36:45;89599.25;;;26.68;42.59
46782;BME280;32541;46.298;11.506;2023-06-19T11:39:12;89611.66;;;26.95;43.79
46782;BME280;32541;46.298;11.506;2023-06-19T11:41:41;89604.34;;;26.78;43.52
46782;BME280;32541;46.298;11.506;2023-06-19T11:44:08;89614.47;;;26.95;43.11
46782;BME280;32541;46.298;11.506;2023-06-19T11:46:35;89618.91;;;27.10;42.98
46782;BME280;32541;46.298;11.506;2023-06-19T11:49:08;89606.38;;;26.27;44.08
46782;BME280;32541;46.298;11.506;2023-06-19T11:51:34;89634.09;;;26.43;42.39
46782;BME280;32541;46.298;11.506;2023-06-19T11:53:59;89615.38;;;26.62;43.43
46782;BME280;32541;46.298;11.506;2023-06-19T11:56:24;89617.47;;;26.61;43.02
46782;BME280;32541;46.298;11.506;2023-06-19T11:58:50;89613.97;;;26.61;44.16
46782;BME280;32541;46.298;11.506;2023-06-19T12:01:15;89593.06;;;26.78;43.92
46782;BME280;32541;46.298;11.506;2023-06-19T12:03:40;89617.13;;;26.83;42.14
46782;BME280;32541;46.298;11.506;2023-06-19T12:06:06;89616.72;;;26.59;43.90
46782;BME280;32541;46.298;11.506;2023-06-19T12:08:32;89611.34;;;26.75;41.74
46782;BME280;32541;46.298;11.506;2023-06-19T12:10:58;89611.25;;;25.85;44.32
46782;BME280;32541;46.298;11.506;2023-06-19T12:13:24;89596.59;;;26.34;43.49
46782;BME280;32541;46.298;11.506;2023-06-19T12:15:49;89589.69;;;26.43;43.99
46782;BME280;32541;46.298;11.506;2023-06-19T12:18:14;89602.09;;;26.70;43.58
46782;BME280;32541;46.298;11.506;2023-06-19T12:20:40;89603.34;;;26.15;42.67
46782;BME280;32541;46.298;11.506;2023-06-19T12:23:05;89602.41;;;26.44;43.49
46782;BME280;32541;46.298;11.506;2023-06-19T12:25:30;89596.63;;;25.94;43.97
46782;BME280;32541;46.298;11.506;2023-06-19T12:27:56;89600.22;;;25.99;44.71
46782;BME280;32541;46.298;11.506;2023-06-19T12:30:22;89605.09;;;25.94;44.36
46782;BME280;32541;46.298;11.506;2023-06-19T12:32:47;89604.81;;;26.18;44.88
46782;BME280;32541;46.298;11.506;2023-06-19T12:35:15;89589.34;;;26.65;44.40
46782;BME280;32541;46.298;11.506;2023-06-19T12:37:40;89595.63;;;27.10;42.72
46782;BME280;32541;46.298;11.506;2023-06-19T12:40:06;89591.44;;;27.13;41.90
46782;BME280;32541;46.298;11.506;2023-06-19T12:42:33;89586.72;;;27.31;42.36
46782;BME280;32541;46.298;11.506;2023-06-19T12:44:58;89585.72;;;27.65;42.40
46782;BME280;32541;46.298;11.506;2023-06-19T12:47:24;89586.75;;;27.97;42.30
46782;BME280;32541;46.298;11.506;2023-06-19T12:49:50;89580.72;;;28.29;41.12
46782;BME280;32541;46.298;11.506;2023-06-19T12:52:15;89587.22;;;28.42;42.96
46782;BME280;32541;46.298;11.506;2023-06-19T12:54:40;89580.97;;;28.59;40.64
46782;BME280;32541;46.298;11.506;2023-06-19T12:57:07;89591.66;;;28.69;39.98
46782;BME280;32541;46.298;11.506;2023-06-19T12:59:32;89584.59;;;28.70;40.57
46782;BME280;32541;46.298;11.506;2023-06-19T13:01:58;89588.28;;;28.91;39.00